Time;durP1;ratioP1;P1;durP2;ratioP2;P2;SDS_P1;SDS_P2;PMS_P1;PMS_P2;Temp;Humidity;BMP_temperature;BMP_pressure;BME280_temperature;BME280_humidity;BME280_pressure;Samples;Min_cycle;Max_cycle;Signal;HPM_P1;HPM_P2
2022/07/25 00:01:10;;;;;;;5.57;4.40;;;22.40;99.90;;;;;;4942078;29;20040;-57
2022/07/25 00:03:36;;;;;;;8.75;4.13;;;22.50;99.90;;;;;;4940790;29;20204;-57
2022/07/25 00:06:01;;;;;;;5.07;4.20;;;22.50;99.90;;;;;;4945390;28;20236;-57
2022/07/25 00:08:27;;;;;;;5.28;4.10;;;22.50;99.90;;;;;;4950611;28;20118;-57
2022/07/25 00:10:53;;;;;;;5.07;4.53;;;22.40;99.90;;;;;;4942940;29;20058;-58
2022/07/25 00:13:18;;;;;;;5.65;4.65;;;22.40;99.90;;;;;;4940843;28;20510;-56
2022/07/25 00:15:44;;;;;;;7.80;4.90;;;22.40;99.90;;;;;;4943616;29;20050;-56
2022/07/25 00:18:10;;;;;;;8.63;4.53;;;22.40;99.90;;;;;;4943021;29;20043;-57
2022/07/25 00:20:35;;;;;;;7.78;5.25;;;22.30;99.90;;;;;;4943190;29;20118;-57
2022/07/25 00:23:01;;;;;;;7.50;5.20;;;22.40;99.90;;;;;;4940657;28;20047;-57
2022/07/25 00:25:26;;;;;;;8.00;5.00;;;22.30;99.90;;;;;;4942515;29;20211;-57
2022/07/25 00:27:52;;;;;;;7.75;5.18;;;22.30;99.90;;;;;;4943339;29;20070;-57
2022/07/25 00:30:18;;;;;;;8.48;5.93;;;22.30;99.90;;;;;;4942080;29;20043;-56
2022/07/25 00:32:43;;;;;;;9.98;6.00;;;22.20;99.90;;;;;;4942835;29;20047;-56
2022/07/25 00:35:09;;;;;;;7.90;6.28;;;22.20;99.90;;;;;;4942878;29;20070;-55
2022/07/25 00:37:35;;;;;;;8.82;5.82;;;22.20;99.90;;;;;;4941524;29;20511;-57
2022/07/25 00:40:02;;;;;;;7.05;5.68;;;22.30;99.90;;;;;;4942353;29;20047;-56
2022/07/25 00:42:28;;;;;;;9.13;6.70;;;22.20;99.90;;;;;;4940379;29;20055;-56
2022/07/25 00:44:53;;;;;;;8.95;6.57;;;22.20;99.90;;;;;;4942405;29;20047;-57
2022/07/25 00:47:19;;;;;;;8.45;7.03;;;22.20;99.90;;;;;;4941218;29;20150;-56
2022/07/25 00:49:45;;;;;;;10.85;6.85;;;22.10;99.90;;;;;;4942554;29;20058;-56
2022/07/25 00:52:10;;;;;;;9.10;6.93;;;22.10;99.90;;;;;;4941298;29;20055;-57
2022/07/25 00:54:36;;;;;;;8.10;7.00;;;22.10;99.90;;;;;;4942084;29;20506;-57
2022/07/25 00:57:02;;;;;;;9.90;7.38;;;22.10;99.90;;;;;;4942196;29;20506;-57
2022/07/25 00:59:27;;;;;;;8.95;8.05;;;22.00;99.90;;;;;;4940780;29;20219;-57
2022/07/25 01:01:53;;;;;;;9.50;7.47;;;22.10;99.90;;;;;;4942015;29;20188;-56
2022/07/25 01:04:19;;;;;;;9.88;8.02;;;22.10;99.90;;;;;;4941723;29;20254;-56
2022/07/25 01:06:45;;;;;;;9.88;8.07;;;22.00;99.90;;;;;;4945408;28;20047;-56
2022/07/25 01:09:11;;;;;;;10.00;8.02;;;22.00;99.90;;;;;;4948675;28;20062;-58
2022/07/25 01:11:36;;;;;;;9.75;8.57;;;22.20;99.90;;;;;;4942349;28;20138;-57
2022/07/25 01:14:03;;;;;;;9.13;8.05;;;22.00;99.90;;;;;;4980887;28;20121;-57
2022/07/25 01:16:28;;;;;;;12.15;8.65;;;21.90;99.90;;;;;;4980298;28;20034;-57
2022/07/25 01:18:54;;;;;;;11.63;9.27;;;21.90;99.90;;;;;;4980393;28;20038;-57
2022/07/25 01:21:21;;;;;;;12.05;8.68;;;21.80;99.90;;;;;;4979413;28;20503;-56
2022/07/25 01:23:47;;;;;;;10.88;9.48;;;21.90;99.90;;;;;;4980539;28;20464;-56
2022/07/25 01:26:12;;;;;;;9.93;8.93;;;21.80;99.90;;;;;;4980892;28;20046;-56
2022/07/25 01:28:38;;;;;;;10.05;8.73;;;21.80;99.90;;;;;;4979959;28;20046;-57
2022/07/25 01:31:04;;;;;;;10.27;9.10;;;21.80;99.90;;;;;;4962995;28;20050;-57
2022/07/25 01:33:30;;;;;;;12.63;9.45;;;21.80;99.90;;;;;;4983519;28;20382;-57
2022/07/25 01:35:56;;;;;;;11.75;9.95;;;21.80;99.90;;;;;;4986650;28;20053;-56
2022/07/25 01:38:21;;;;;;;10.40;8.73;;;21.70;99.90;;;;;;4985316;28;20042;-57
2022/07/25 01:40:47;;;;;;;13.27;10.07;;;21.70;99.90;;;;;;4986778;28;20046;-56
2022/07/25 01:43:13;;;;;;;12.25;10.52;;;21.80;99.90;;;;;;4986937;28;20038;-56
2022/07/25 01:45:38;;;;;;;12.43;10.13;;;21.80;99.90;;;;;;4986986;28;20097;-57
2022/07/25 01:48:04;;;;;;;12.40;10.55;;;21.70;99.90;;;;;;4986137;28;20077;-57
2022/07/25 01:50:30;;;;;;;11.45;10.25;;;21.70;99.90;;;;;;4969028;28;20046;-57
2022/07/25 01:52:56;;;;;;;13.48;10.45;;;21.70;99.90;;;;;;4986094;28;20042;-56
2022/07/25 01:55:21;;;;;;;12.73;10.23;;;21.70;99.90;;;;;;4986059;28;20073;-57
2022/07/25 01:57:47;;;;;;;11.30;10.25;;;21.70;99.90;;;;;;4969504;28;20145;-57
2022/07/25 02:00:13;;;;;;;11.57;10.40;;;21.60;99.90;;;;;;4986973;28;20054;-56
2022/07/25 02:02:41;;;;;;;13.10;11.50;;;21.50;99.90;;;;;;4986657;28;20440;-57
2022/07/25 02:05:07;;;;;;;11.95;10.70;;;21.50;99.90;;;;;;4986938;28;20050;-56
2022/07/25 02:07:34;;;;;;;12.30;10.73;;;21.50;99.90;;;;;;4961610;28;20560;-57
2022/07/25 02:09:59;;;;;;;13.40;12.00;;;21.40;99.90;;;;;;4948430;28;20611;-56
2022/07/25 02:12:25;;;;;;;12.30;11.02;;;21.40;99.90;;;;;;4947194;29;20070;-57
2022/07/25 02:14:51;;;;;;;12.50;11.23;;;21.30;99.90;;;;;;4931208;29;20073;-56
2022/07/25 02:17:17;;;;;;;12.93;11.60;;;21.30;99.90;;;;;;4947249;28;20451;-56
2022/07/25 02:19:43;;;;;;;13.13;11.75;;;21.30;99.90;;;;;;4948083;29;20131;-57
2022/07/25 02:22:09;;;;;;;13.20;11.82;;;21.30;99.90;;;;;;4947464;29;20249;-56
2022/07/25 02:24:36;;;;;;;13.43;12.02;;;21.20;99.90;;;;;;4947399;28;20175;-57
2022/07/25 02:27:02;;;;;;;13.40;11.85;;;21.20;99.90;;;;;;4947648;29;20643;-57
2022/07/25 02:29:28;;;;;;;13.70;12.00;;;21.20;99.90;;;;;;4947469;29;20047;-57
2022/07/25 02:31:53;;;;;;;13.50;11.60;;;21.20;99.90;;;;;;4947701;28;20118;-56
2022/07/25 02:34:19;;;;;;;13.15;11.63;;;21.20;99.90;;;;;;4946530;29;20075;-57
2022/07/25 02:36:45;;;;;;;13.23;11.93;;;21.20;99.90;;;;;;4947596;29;20047;-57
2022/07/25 02:39:11;;;;;;;12.85;11.55;;;21.10;99.90;;;;;;4947512;28;20767;-58
2022/07/25 02:41:37;;;;;;;14.73;11.55;;;21.10;99.90;;;;;;4947522;28;20170;-57
2022/07/25 02:44:05;;;;;;;12.82;11.52;;;21.10;99.90;;;;;;4946340;28;20118;-57
2022/07/25 02:46:30;;;;;;;13.60;12.30;;;21.00;99.90;;;;;;4943858;29;20047;-56
2022/07/25 02:48:56;;;;;;;13.55;12.23;;;21.00;99.90;;;;;;4944238;29;20170;-55
2022/07/25 02:51:22;;;;;;;14.07;12.75;;;21.00;99.90;;;;;;4943242;29;20055;-57
2022/07/25 02:53:48;;;;;;;15.05;12.07;;;21.00;99.90;;;;;;4943939;29;20043;-56
2022/07/25 02:56:14;;;;;;;13.38;11.98;;;20.90;99.90;;;;;;4944329;29;20087;-57
2022/07/25 02:58:39;;;;;;;13.05;11.68;;;20.90;99.90;;;;;;4944613;29;20130;-57
2022/07/25 03:01:05;;;;;;;13.32;12.02;;;20.90;99.90;;;;;;4944739;29;20450;-55
2022/07/25 03:03:31;;;;;;;13.10;11.80;;;20.80;99.90;;;;;;4943200;29;20043;-57
2022/07/25 03:05:56;;;;;;;13.20;11.88;;;20.60;99.90;;;;;;4945169;28;20545;-57
2022/07/25 03:08:22;;;;;;;13.02;11.68;;;20.70;99.90;;;;;;4952775;28;20050;-56
2022/07/25 03:10:48;;;;;;;13.25;11.63;;;20.80;99.90;;;;;;4943967;29;20450;-57
2022/07/25 03:13:13;;;;;;;12.48;11.27;;;20.70;99.90;;;;;;4926755;29;20043;-56
2022/07/25 03:15:39;;;;;;;13.52;12.02;;;20.70;99.90;;;;;;4944044;29;20054;-57
2022/07/25 03:18:05;;;;;;;14.75;12.65;;;20.70;99.90;;;;;;4944045;29;20270;-57
2022/07/25 03:20:30;;;;;;;13.35;12.05;;;20.60;99.90;;;;;;4944068;29;20051;-57
2022/07/25 03:22:56;;;;;;;13.38;12.00;;;20.70;99.90;;;;;;4942634;29;20039;-56
2022/07/25 03:25:21;;;;;;;12.82;11.60;;;20.60;99.90;;;;;;4943765;29;20043;-56
2022/07/25 03:27:47;;;;;;;14.77;11.82;;;20.70;99.90;;;;;;4944248;29;20110;-56
2022/07/25 03:30:13;;;;;;;13.73;12.32;;;20.60;99.90;;;;;;4944152;29;20282;-56
2022/07/25 03:32:40;;;;;;;15.32;12.45;;;20.70;99.90;;;;;;4943292;29;20055;-57
2022/07/25 03:35:06;;;;;;;13.90;12.40;;;20.70;99.90;;;;;;4943789;29;20051;-57
2022/07/25 03:37:32;;;;;;;13.73;12.32;;;20.70;99.90;;;;;;4942440;29;20054;-57
2022/07/25 03:39:57;;;;;;;13.95;12.35;;;20.70;99.90;;;;;;4943467;29;20474;-56
2022/07/25 03:42:23;;;;;;;12.68;11.38;;;20.70;99.90;;;;;;4924872;29;20203;-57
2022/07/25 03:44:49;;;;;;;13.43;12.02;;;20.70;99.90;;;;;;4943693;29;20035;-57
2022/07/25 03:47:14;;;;;;;15.13;12.13;;;20.70;99.90;;;;;;4926369;29;20039;-57
2022/07/25 03:49:40;;;;;;;13.45;11.27;;;20.80;99.90;;;;;;4943278;29;20047;-56
2022/07/25 03:52:06;;;;;;;12.68;11.23;;;20.80;99.90;;;;;;4942840;29;20097;-57
2022/07/25 03:54:31;;;;;;;14.43;11.20;;;20.80;99.90;;;;;;4943089;29;20500;-56
2022/07/25 03:56:57;;;;;;;13.90;11.82;;;20.70;99.90;;;;;;4942850;28;20055;-59
2022/07/25 03:59:23;;;;;;;13.02;11.73;;;20.70;99.90;;;;;;4942877;29;20082;-57
2022/07/25 04:01:50;;;;;;;12.60;11.30;;;20.70;99.90;;;;;;4942739;29;20094;-56
2022/07/25 04:04:16;;;;;;;13.23;11.32;;;20.70;99.90;;;;;;4943114;29;20519;-54
2022/07/25 04:06:42;;;;;;;12.88;11.38;;;20.70;99.90;;;;;;4946174;28;20051;-56
2022/07/25 04:09:09;;;;;;;13.75;12.30;;;20.70;99.90;;;;;;4949630;28;20062;-56
2022/07/25 04:11:37;;;;;;;12.23;10.68;;;20.80;99.90;;;;;;4925852;29;21249;-57
2022/07/25 04:14:03;;;;;;;13.82;12.32;;;20.80;99.90;;;;;;4943052;29;20122;-57
2022/07/25 04:16:28;;;;;;;12.25;11.05;;;20.80;99.90;;;;;;4925748;29;20078;-57
2022/07/25 04:18:54;;;;;;;11.68;10.48;;;20.80;99.90;;;;;;4941925;29;20051;-57
2022/07/25 04:21:20;;;;;;;12.18;10.88;;;20.80;99.90;;;;;;4941873;29;20100;-56
2022/07/25 04:23:47;;;;;;;12.80;10.45;;;20.80;99.90;;;;;;4943152;29;20047;-56
2022/07/25 04:26:12;;;;;;;13.25;10.30;;;20.80;99.90;;;;;;4943272;29;20047;-56
2022/07/25 04:28:38;;;;;;;12.60;11.30;;;20.70;99.90;;;;;;4924923;29;20040;-56
2022/07/25 04:31:04;;;;;;;13.63;11.60;;;20.70;99.90;;;;;;4943006;29;20047;-56
2022/07/25 04:33:29;;;;;;;12.73;11.30;;;20.70;99.90;;;;;;4942220;29;20040;-57
2022/07/25 04:35:55;;;;;;;12.63;11.32;;;20.70;99.90;;;;;;4942088;29;20122;-56
2022/07/25 04:38:21;;;;;;;13.43;12.10;;;20.70;99.90;;;;;;4941731;29;20047;-56
2022/07/25 04:40:47;;;;;;;12.63;11.35;;;20.60;99.90;;;;;;4942791;29;20055;-56
2022/07/25 04:43:12;;;;;;;12.00;10.68;;;20.60;99.90;;;;;;4942850;29;20411;-57
2022/07/25 04:45:38;;;;;;;15.02;10.98;;;20.60;99.90;;;;;;4942334;29;20146;-56
2022/07/25 04:48:04;;;;;;;13.05;11.18;;;20.60;99.90;;;;;;4942191;29;20447;-57
2022/07/25 04:50:30;;;;;;;12.93;10.90;;;20.70;99.90;;;;;;4941883;29;20066;-57
2022/07/25 04:52:55;;;;;;;13.25;11.82;;;20.80;99.90;;;;;;4941699;29;20047;-56
2022/07/25 04:55:21;;;;;;;12.70;11.10;;;21.00;99.90;;;;;;4942284;29;20554;-56
2022/07/25 04:57:47;;;;;;;13.27;11.85;;;21.30;99.90;;;;;;4941875;29;20483;-57
2022/07/25 05:00:14;;;;;;;12.90;11.60;;;21.60;99.90;;;;;;4942338;29;20054;-56
2022/07/25 05:02:40;;;;;;;13.45;11.38;;;21.80;99.90;;;;;;4941980;29;20043;-56
2022/07/25 05:05:07;;;;;;;11.20;10.05;;;22.10;99.90;;;;;;4942011;29;20693;-58
2022/07/25 05:07:33;;;;;;;12.30;11.05;;;22.30;99.90;;;;;;4950361;28;20502;-56
2022/07/25 05:09:59;;;;;;;12.82;11.32;;;22.40;99.90;;;;;;4942524;28;20059;-57
2022/07/25 05:12:24;;;;;;;13.43;10.23;;;22.30;99.90;;;;;;4941523;29;20501;-57
2022/07/25 05:14:50;;;;;;;13.45;10.98;;;22.20;99.90;;;;;;4924084;29;20054;-57
2022/07/25 05:17:17;;;;;;;12.90;11.10;;;22.30;99.90;;;;;;4941636;29;20150;-55
2022/07/25 05:19:42;;;;;;;12.95;11.65;;;22.30;99.90;;;;;;4942559;29;20079;-56
2022/07/25 05:22:08;;;;;;;12.77;11.32;;;22.20;99.90;;;;;;4941440;29;20083;-56
2022/07/25 05:24:34;;;;;;;10.38;7.93;;;22.10;99.90;;;;;;4941043;29;20047;-57
2022/07/25 05:27:00;;;;;;;12.68;11.27;;;21.90;99.90;;;;;;4942321;28;20051;-56
2022/07/25 05:29:26;;;;;;;13.30;11.77;;;21.80;99.90;;;;;;4941270;29;20051;-56
2022/07/25 05:31:52;;;;;;;15.23;11.63;;;21.90;99.90;;;;;;4941902;29;20055;-56
2022/07/25 05:34:17;;;;;;;12.73;11.35;;;22.20;99.90;;;;;;4940588;29;20094;-56
2022/07/25 05:36:43;;;;;;;12.00;10.10;;;22.50;99.90;;;;;;4941374;29;20043;-56
2022/07/25 05:39:09;;;;;;;12.55;11.25;;;22.90;99.90;;;;;;4942006;29;20114;-56
2022/07/25 05:41:34;;;;;;;14.23;11.07;;;23.00;99.90;;;;;;4941633;29;20498;-57
2022/07/25 05:44:00;;;;;;;13.48;11.40;;;23.00;99.90;;;;;;4941034;29;20039;-56
2022/07/25 05:46:26;;;;;;;14.55;11.32;;;23.00;99.90;;;;;;4941709;29;20599;-56
2022/07/25 05:48:51;;;;;;;13.13;11.35;;;22.90;99.90;;;;;;4941448;29;20039;-56
2022/07/25 05:51:17;;;;;;;13.02;11.60;;;22.70;99.90;;;;;;4940539;29;20057;-56
2022/07/25 05:53:43;;;;;;;13.25;11.32;;;22.70;99.90;;;;;;4941709;29;20072;-55
2022/07/25 05:56:09;;;;;;;15.57;12.30;;;22.70;99.90;;;;;;4941466;29;20054;-56
2022/07/25 05:58:36;;;;;;;14.45;12.13;;;22.70;99.90;;;;;;4941642;29;20039;-58
2022/07/25 06:01:02;;;;;;;13.05;11.50;;;22.70;99.90;;;;;;4941434;29;20047;-56
2022/07/25 06:03:28;;;;;;;14.20;11.68;;;22.80;99.90;;;;;;4940617;29;20047;-57
2022/07/25 06:05:54;;;;;;;13.00;11.63;;;23.00;99.90;;;;;;4942447;28;20375;-57
2022/07/25 06:08:20;;;;;;;13.95;10.75;;;23.20;99.90;;;;;;4950265;28;20138;-56
2022/07/25 06:10:46;;;;;;;15.05;11.07;;;23.60;99.90;;;;;;4924407;29;20473;-57
2022/07/25 06:13:11;;;;;;;14.32;11.18;;;23.80;99.90;;;;;;4941199;29;20049;-56
2022/07/25 06:15:37;;;;;;;11.25;10.13;;;23.70;99.90;;;;;;4941048;29;20114;-57
2022/07/25 06:18:02;;;;;;;14.30;10.02;;;23.80;99.90;;;;;;4941388;29;20479;-57
2022/07/25 06:20:28;;;;;;;13.30;10.02;;;23.70;99.90;;;;;;4941767;28;20055;-56
2022/07/25 06:22:54;;;;;;;10.50;8.88;;;23.50;99.90;;;;;;4944735;29;20047;-57
2022/07/25 06:25:19;;;;;;;12.35;10.23;;;23.40;99.90;;;;;;4945059;29;20051;-56
2022/07/25 06:27:45;;;;;;;11.00;9.30;;;23.40;99.90;;;;;;4945094;29;20487;-57
2022/07/25 06:30:11;;;;;;;12.65;10.18;;;23.20;99.90;;;;;;4945174;29;20716;-57
2022/07/25 06:32:37;;;;;;;11.80;10.07;;;23.20;99.90;;;;;;4944144;29;20043;-55
2022/07/25 06:35:03;;;;;;;10.35;9.23;;;23.10;99.90;;;;;;4944767;29;20731;-57
2022/07/25 06:37:29;;;;;;;12.00;9.18;;;23.20;99.90;;;;;;4943974;29;20039;-56
2022/07/25 06:39:54;;;;;;;10.93;9.82;;;23.20;99.90;;;;;;4944241;29;20490;-56
2022/07/25 06:42:20;;;;;;;11.15;9.48;;;23.30;99.90;;;;;;4943892;29;20448;-57
2022/07/25 06:44:46;;;;;;;10.68;9.60;;;23.50;99.90;;;;;;4944621;29;20090;-56
2022/07/25 06:47:12;;;;;;;10.82;9.73;;;23.60;99.90;;;;;;4944643;29;20035;-56
2022/07/25 06:49:41;;;;;;;10.73;9.30;;;23.70;99.90;;;;;;4943752;29;20544;-57
2022/07/25 06:52:07;;;;;;;11.73;9.50;;;24.00;99.90;;;;;;4926691;29;20051;-57
2022/07/25 06:54:33;;;;;;;12.60;9.23;;;23.90;99.90;;;;;;4944474;29;20186;-57
2022/07/25 06:56:59;;;;;;;10.30;9.18;;;23.90;99.90;;;;;;4944579;29;20053;-56
2022/07/25 06:59:26;;;;;;;11.43;9.57;;;24.00;99.90;;;;;;4943228;29;20838;-58
2022/07/25 07:01:53;;;;;;;12.02;9.13;;;24.10;99.90;;;;;;4944564;29;20039;-57
2022/07/25 07:04:18;;;;;;;9.70;8.70;;;24.40;99.90;;;;;;4943957;29;20047;-57
2022/07/25 07:06:44;;;;;;;11.05;9.10;;;24.50;99.90;;;;;;4947601;28;20494;-57
2022/07/25 07:09:10;;;;;;;12.68;8.80;;;24.80;99.90;;;;;;4950808;28;20050;-57
2022/07/25 07:11:35;;;;;;;11.00;8.98;;;25.20;99.90;;;;;;4943862;29;20496;-57
2022/07/25 07:14:02;;;;;;;10.05;8.80;;;25.60;99.90;;;;;;4944023;29;20141;-56
2022/07/25 07:16:29;;;;;;;12.23;8.35;;;25.40;99.90;;;;;;4943520;28;20043;-56
2022/07/25 07:18:55;;;;;;;10.88;8.73;;;25.60;99.90;;;;;;4943437;29;20557;-57
2022/07/25 07:21:21;;;;;;;10.90;9.10;;;25.80;99.90;;;;;;4943445;29;20043;-56
2022/07/25 07:23:47;;;;;;;12.18;9.05;;;25.80;99.90;;;;;;4944095;29;20047;-56
2022/07/25 07:26:12;;;;;;;10.40;8.75;;;25.90;99.90;;;;;;4944369;29;20380;-56
2022/07/25 07:28:38;;;;;;;12.35;9.07;;;25.80;99.90;;;;;;4943194;29;20058;-57
2022/07/25 07:31:04;;;;;;;9.13;7.35;;;25.90;99.90;;;;;;4943065;28;20048;-57
2022/07/25 07:33:32;;;;;;;10.85;9.32;;;25.80;99.90;;;;;;4943559;29;20619;-57
2022/07/25 07:35:58;;;;;;;11.15;9.10;;;25.90;99.90;;;;;;4942739;29;20084;-58
2022/07/25 07:38:24;;;;;;;11.10;9.45;;;26.10;99.90;;;;;;4943723;29;20050;-57
2022/07/25 07:40:51;;;;;;;13.52;9.02;;;26.30;99.90;;;;;;4926374;29;20183;-57
2022/07/25 07:43:16;;;;;;;10.90;8.82;;;26.20;99.90;;;;;;4943391;29;20106;-55
2022/07/25 07:45:43;;;;;;;14.05;8.90;;;26.00;99.90;;;;;;4943483;29;20495;-55
2022/07/25 07:48:08;;;;;;;9.60;8.60;;;26.00;99.90;;;;;;4926386;29;20105;-58
2022/07/25 07:50:34;;;;;;;10.60;8.68;;;26.00;99.90;;;;;;4942798;29;20047;-57
2022/07/25 07:53:00;;;;;;;12.15;9.80;;;25.80;99.90;;;;;;4943654;29;20043;-57
2022/07/25 07:55:44;;;;;;;11.52;9.60;;;25.60;99.90;;;;;;4942213;29;20050;-57
2022/07/25 07:58:11;;;;;;;11.23;9.68;;;25.60;99.90;;;;;;4943340;29;20429;-56
2022/07/25 08:00:40;;;;;;;12.43;9.70;;;25.50;99.90;;;;;;4943192;29;20522;-57
2022/07/25 08:03:07;;;;;;;14.63;10.27;;;25.60;99.90;;;;;;4942912;29;20050;-57
2022/07/25 08:05:43;;;;;;;12.90;10.68;;;25.70;99.90;;;;;;4942209;28;20050;-56
2022/07/25 08:08:12;;;;;;;10.63;9.07;;;25.60;99.90;;;;;;4951134;28;20055;-56
2022/07/25 08:10:41;;;;;;;13.35;9.75;;;25.90;99.90;;;;;;4961716;28;20410;-57
2022/07/25 08:13:37;;;;;;;10.82;9.77;;;26.10;99.90;;;;;;4962332;28;20039;-56
2022/07/25 08:16:03;;;;;;;13.45;10.38;;;26.30;99.90;;;;;;4949343;28;20146;-57
2022/07/25 08:18:31;;;;;;;11.63;9.82;;;26.30;99.90;;;;;;4961843;28;20039;-56
2022/07/25 08:20:58;;;;;;;11.75;10.15;;;26.40;99.90;;;;;;4962607;28;20055;-59
2022/07/25 08:23:26;;;;;;;11.63;9.82;;;26.50;99.90;;;;;;4952171;28;20118;-58
2022/07/25 08:25:52;;;;;;;12.82;10.55;;;26.50;99.90;;;;;;4963495;28;20046;-58
2022/07/25 08:28:18;;;;;;;12.95;10.13;;;26.60;99.90;;;;;;4970021;28;20042;-57
2022/07/25 08:30:44;;;;;;;10.65;9.55;;;26.90;99.90;;;;;;4972556;28;20619;-59
2022/07/25 08:33:17;;;;;;;11.73;9.98;;;27.20;99.90;;;;;;4966762;28;20039;-59
2022/07/25 08:35:52;;;;;;;12.05;9.43;;;27.20;99.90;;;;;;4961843;28;20042;-59
2022/07/25 08:38:18;;;;;;;11.65;10.45;;;27.30;99.90;;;;;;4961645;28;20042;-58
2022/07/25 08:40:44;;;;;;;13.85;10.10;;;27.00;99.90;;;;;;4961818;28;20049;-58
2022/07/25 08:43:12;;;;;;;12.20;8.98;;;26.70;99.90;;;;;;4961090;28;20038;-59
2022/07/25 08:45:52;;;;;;;13.38;8.57;;;26.50;99.90;;;;;;4961825;28;20102;-63
2022/07/25 08:48:23;;;;;;;9.75;8.40;;;26.10;99.90;;;;;;4960822;28;20049;-62
2022/07/25 08:50:50;;;;;;;10.05;8.75;;;25.90;99.90;;;;;;4943880;28;20154;-60
2022/07/25 08:53:19;;;;;;;11.52;9.63;;;25.70;99.90;;;;;;4961937;28;20636;-55
2022/07/25 08:55:45;;;;;;;11.93;9.40;;;25.80;99.90;;;;;;4961793;28;20130;-60
2022/07/25 08:58:13;;;;;;;11.50;10.27;;;25.70;99.90;;;;;;4961705;28;20461;-61
2022/07/25 09:00:40;;;;;;;14.95;10.82;;;25.70;99.90;;;;;;4961461;28;20113;-61
2022/07/25 09:03:07;;;;;;;12.75;9.68;;;25.80;99.90;;;;;;4961593;28;20406;-61
2022/07/25 09:05:33;;;;;;;9.63;8.68;;;25.80;99.90;;;;;;4959461;28;20050;-60
2022/07/25 09:08:10;;;;;;;10.43;8.40;;;25.80;99.90;;;;;;4952385;28;20050;-59
2022/07/25 09:10:36;;;;;;;11.02;8.13;;;25.80;99.90;;;;;;4941929;29;20061;-59
2022/07/25 09:13:14;;;;;;;9.45;8.55;;;26.00;99.90;;;;;;4941586;29;20051;-61
2022/07/25 09:15:45;;;;;;;12.55;8.90;;;25.70;99.90;;;;;;4925706;29;20051;-61
2022/07/25 09:18:13;;;;;;;10.52;8.63;;;25.30;99.90;;;;;;4942385;29;20046;-61
2022/07/25 09:20:51;;;;;;;11.07;7.63;;;25.20;99.90;;;;;;4940861;29;20047;-60
2022/07/25 09:23:31;;;;;;;12.25;7.75;;;25.20;99.90;;;;;;4941826;29;20051;-58
2022/07/25 09:26:11;;;;;;;11.43;8.02;;;24.90;99.90;;;;;;4940487;28;20426;-59
2022/07/25 09:28:44;;;;;;;10.80;7.97;;;24.90;99.90;;;;;;4958218;28;20054;-60
2022/07/25 09:31:11;;;;;;;10.10;7.53;;;24.90;99.90;;;;;;4960338;28;20057;-59
2022/07/25 09:33:50;;;;;;;8.40;6.97;;;24.90;99.90;;;;;;4960073;28;20555;-61
2022/07/25 09:36:16;;;;;;;12.00;7.10;;;25.00;99.90;;;;;;4960080;28;20082;-60
2022/07/25 09:38:59;;;;;;;9.30;6.80;;;25.00;99.90;;;;;;4961191;28;20298;-59
2022/07/25 09:41:35;;;;;;;10.50;7.30;;;25.00;99.90;;;;;;4960256;28;20114;-59
2022/07/25 09:44:01;;;;;;;12.30;7.25;;;24.90;99.90;;;;;;4960746;28;20383;-60
2022/07/25 09:46:31;;;;;;;11.15;7.53;;;25.00;99.90;;;;;;4959683;28;20113;-60
2022/07/25 09:48:58;;;;;;;9.63;6.75;;;24.90;99.90;;;;;;4959890;28;20074;-60
2022/07/25 09:51:25;;;;;;;10.13;6.38;;;24.80;99.90;;;;;;4959817;28;20129;-61
2022/07/25 09:53:51;;;;;;;9.27;6.43;;;24.90;99.90;;;;;;4961214;28;20101;-60
2022/07/25 09:56:17;;;;;;;8.27;6.45;;;25.00;99.90;;;;;;4963658;28;20046;-58
2022/07/25 09:58:43;;;;;;;8.52;6.72;;;25.20;99.90;;;;;;4964895;28;20039;-60
2022/07/25 10:01:10;;;;;;;6.78;5.60;;;25.10;99.90;;;;;;4962015;28;20074;-61
2022/07/25 10:04:04;;;;;;;7.70;5.82;;;25.30;99.90;;;;;;4965006;28;20485;-62
2022/07/25 10:06:39;;;;;;;11.73;6.45;;;25.30;99.90;;;;;;4959355;28;20055;-62
2022/07/25 10:09:12;;;;;;;7.90;6.28;;;25.30;99.90;;;;;;4970411;28;20046;-63
2022/07/25 10:11:38;;;;;;;8.73;6.30;;;25.00;99.90;;;;;;4974563;28;20046;-63
2022/07/25 10:14:11;;;;;;;10.88;6.10;;;24.80;99.90;;;;;;4969559;28;20049;-61
2022/07/25 10:16:47;;;;;;;10.45;7.28;;;24.70;99.90;;;;;;4964650;28;20071;-61
2022/07/25 10:19:13;;;;;;;9.80;7.43;;;24.80;99.90;;;;;;4961771;28;20043;-60
2022/07/25 10:21:39;;;;;;;18.52;7.47;;;24.90;99.90;;;;;;4963060;28;20423;-59
2022/07/25 10:24:07;;;;;;;11.00;7.30;;;25.00;99.90;;;;;;4974902;28;20042;-58
2022/07/25 10:26:38;;;;;;;10.63;7.55;;;25.00;99.90;;;;;;4964585;28;20499;-58
2022/07/25 10:29:09;;;;;;;8.07;6.25;;;25.30;99.90;;;;;;4983749;28;20049;-58
2022/07/25 10:31:39;;;;;;;7.88;6.00;;;25.40;99.90;;;;;;4983103;28;20133;-58
2022/07/25 10:34:07;;;;;;;6.50;5.50;;;25.40;99.90;;;;;;4982810;28;20390;-58
2022/07/25 10:36:52;;;;;;;9.25;4.82;;;25.40;99.90;;;;;;4982671;28;20065;-55
2022/07/25 10:39:20;;;;;;;6.68;4.47;;;25.10;99.90;;;;;;4983278;28;20122;-58
2022/07/25 10:42:04;;;;;;;6.47;4.30;;;24.80;99.90;;;;;;4965838;28;20042;-59
2022/07/25 10:44:46;;;;;;;5.85;4.43;;;24.80;99.90;;;;;;4983126;28;20070;-58
2022/07/25 10:47:13;;;;;;;5.97;4.20;;;24.90;99.90;;;;;;4983843;28;20340;-59
2022/07/25 10:49:42;;;;;;;5.57;3.38;;;25.00;99.90;;;;;;4983027;28;20084;-59
2022/07/25 10:52:16;;;;;;;4.18;3.10;;;25.00;99.90;;;;;;4983860;28;20156;-58
2022/07/25 10:54:55;;;;;;;4.32;2.72;;;25.10;99.90;;;;;;4983265;28;20158;-59
2022/07/25 10:57:21;;;;;;;3.85;2.17;;;25.30;99.90;;;;;;4983146;28;20417;-58
2022/07/25 10:59:47;;;;;;;5.07;2.20;;;25.50;99.90;;;;;;4983398;28;20054;-59
2022/07/25 11:02:16;;;;;;;4.38;2.42;;;25.50;99.90;;;;;;4983099;28;20034;-57
2022/07/25 11:04:56;;;;;;;3.78;1.40;;;25.60;99.90;;;;;;4982936;28;20038;-59
2022/07/25 11:07:22;;;;;;;2.60;1.58;;;25.40;99.90;;;;;;4960107;28;20051;-58
2022/07/25 11:09:59;;;;;;;4.32;1.58;;;25.20;99.90;;;;;;4946049;28;20047;-59
2022/07/25 11:12:25;;;;;;;4.15;1.70;;;25.00;99.90;;;;;;4944482;29;20514;-58
2022/07/25 11:14:58;;;;;;;7.95;1.70;;;24.80;99.90;;;;;;4943305;29;20067;-59
2022/07/25 11:17:24;;;;;;;3.92;1.52;;;24.70;99.90;;;;;;4944074;29;20481;-59
2022/07/25 11:20:05;;;;;;;3.00;1.70;;;24.70;99.90;;;;;;4943740;29;20661;-59
2022/07/25 11:22:32;;;;;;;4.55;1.05;;;24.80;99.90;;;;;;4942275;29;20043;-59
2022/07/25 11:24:58;;;;;;;2.17;1.10;;;24.50;99.90;;;;;;4927432;28;20053;-58
2022/07/25 11:27:26;;;;;;;2.40;1.15;;;24.40;99.90;;;;;;4972938;28;20046;-59
2022/07/25 11:29:51;;;;;;;1.95;0.93;;;24.20;99.90;;;;;;4981427;28;20042;-59
2022/07/25 11:32:18;;;;;;;5.30;1.17;;;23.80;99.90;;;;;;4981342;28;20549;-59
2022/07/25 11:34:51;;;;;;;2.55;1.27;;;23.50;99.90;;;;;;4982364;28;20039;-58
2022/07/25 11:37:18;;;;;;;4.73;1.50;;;23.30;99.90;;;;;;4982488;28;20092;-59
2022/07/25 11:39:46;;;;;;;4.50;1.60;;;23.10;99.90;;;;;;4982214;28;20073;-59
2022/07/25 11:42:17;;;;;;;4.20;1.63;;;22.90;99.90;;;;;;4965327;28;20073;-52
2022/07/25 11:44:49;;;;;;;3.15;1.88;;;23.00;99.90;;;;;;4982785;28;20104;-57
2022/07/25 11:47:41;;;;;;;3.13;1.67;;;23.00;99.90;;;;;;4982521;28;20343;-57
2022/07/25 11:50:09;;;;;;;4.90;2.25;;;23.10;99.90;;;;;;4977282;28;20054;-57
2022/07/25 11:52:36;;;;;;;6.78;2.40;;;23.40;99.90;;;;;;4982142;28;20421;-56
2022/07/25 11:55:05;;;;;;;3.10;2.60;;;23.90;99.90;;;;;;4964746;28;20053;-57
2022/07/25 11:57:40;;;;;;;3.72;2.42;;;24.00;99.90;;;;;;4981762;28;20957;-57
2022/07/25 12:00:21;;;;;;;4.15;2.40;;;24.00;99.90;;;;;;4982564;28;20057;-57
2022/07/25 12:02:49;;;;;;;3.67;2.25;;;24.10;99.90;;;;;;4982057;28;20129;-57
2022/07/25 12:05:29;;;;;;;3.90;2.38;;;23.80;99.90;;;;;;4981920;28;20050;-57
2022/07/25 12:07:55;;;;;;;5.40;2.10;;;23.90;99.90;;;;;;4935470;29;20477;-58
2022/07/25 12:10:32;;;;;;;5.78;2.10;;;23.90;99.90;;;;;;4942866;29;20047;-57
2022/07/25 12:13:00;;;;;;;4.97;2.35;;;24.00;99.90;;;;;;4943133;29;20653;-57
2022/07/25 12:15:43;;;;;;;6.07;2.30;;;23.90;99.90;;;;;;4942665;29;20051;-58
2022/07/25 12:18:11;;;;;;;5.63;2.60;;;23.90;99.90;;;;;;4943392;28;20050;-57
2022/07/25 12:20:42;;;;;;;5.63;2.60;;;23.60;99.90;;;;;;4942054;29;20573;-56
2022/07/25 12:23:10;;;;;;;6.18;2.15;;;23.70;99.90;;;;;;4943068;29;20598;-57
2022/07/25 12:25:37;;;;;;;6.70;2.70;;;23.50;99.90;;;;;;4943021;29;20391;-58
2022/07/25 12:28:04;;;;;;;5.97;2.35;;;23.50;99.90;;;;;;4943332;29;20047;-56
2022/07/25 12:30:30;;;;;;;4.95;2.25;;;23.60;99.90;;;;;;4942038;29;20047;-57
2022/07/25 12:32:57;;;;;;;5.80;2.25;;;23.70;99.90;;;;;;4942803;29;20047;-57
2022/07/25 12:35:23;;;;;;;6.93;2.50;;;23.70;99.90;;;;;;4942453;29;20047;-56
2022/07/25 12:37:50;;;;;;;5.88;2.30;;;23.90;99.90;;;;;;4942826;29;20047;-58